Airfield :
LOGIN :

Register | Disclaimer

   EN    FR    IT 

 










Legend :    VFR   Marginal VFR   IFR   Intensive IFR   Very Intensive IFR
Visi :
Ceiling :
>= 8 km
>= 3000ft
5 to 8 km
1000 to 3000 ft
1500m to 5 km
500 to 1000 ft
800 to 1500m
200 to 500 ft
< 800m
< 200 ft
Symbols :   Thunderstorms  Fog  Heavy snow  Heavy precipitations  Wind > 20 kt
SIGMETs :     Misc.  Thunderstorms  Icing  Turbulence  Mountain Waves  Volcanic Ashes






- Airport Elevation : 412 ft
- IATA code : ORE


LFOJ - Orleans

CURRENT METAR :
  • 130900Z AUTO VRB02KT 9999 FEW021 SCT038 BKN054 18/12 Q1015 TEMPO 4000 -SHRA SCT025TCU

EXPIRED METARs :
  • 130830Z AUTO VRB01KT 9999 BKN019 18/13 Q1015 TEMPO 4000 -SHRA SCT025TCU
  • 130800Z AUTO VRB01KT 9999 BKN017 17/13 Q1015 TEMPO 4000 -SHRA SCT025TCU
  • 130730Z AUTO VRB02KT 9999 FEW011 16/12 Q1015 TEMPO 4000 -SHRA SCT025TCU
  • 130700Z AUTO VRB02KT 9999 FEW011 15/12 Q1015 NOSIG
  • 130630Z AUTO 06003KT 9999 SCT010 14/12 Q1015 NOSIG
  • 130600Z AUTO VRB02KT 9999 OVC010 14/12 Q1015 BECMG NSC
  • 130530Z AUTO 00000KT 9999 OVC011 13/12 Q1015 BECMG NSC
  • 130500Z AUTO VRB03KT 9999 OVC012 13/12 Q1015 TEMPO 3000 BR BECMG NSC
  • 130430Z AUTO 33003KT 9999 OVC011 13/13 Q1015 TEMPO 3000 BR BECMG NSC

TAF TAF LFOJ
Valid from the 13 at 09:00 until the 14 at 09:00 UTC


130800Z 1309/1409 24003KT 9999 SCT025 TX21/1315Z TN10/1403Z
PROB30
TEMPO 1309/1313 4000 -SHRA SCT025TCU



MET'MAP, your aeronautical weather chart ! - Copyright ORBIFLY December 2007 - Disclaimer

ORBIFLY MET'MAP TEAM :

Programming & Development : Alexandra Zaïnal
Original concept : Baudouin d'Aumeries
Technical & hardware support : Manuel Goepfert
Assistance : Marc-Olivier Méhu




SOURCES & CREDITS :

   NOAA